EDDP

Leipzig Halle Airport

Leipzig, Germany
METAR EDDP 180250Z 17006KT 9999 BKN045 BKN230 00/M01 Q1021 NOSIG
Observed Flight Rules
Dec-18 @ 02:50 UTC (31 minutes ago) Visual Flight Rules
Wind Visibility Clouds
170° at 6 knots 10,000+ meters
  • Broken at 4,500' AGL
  • Broken at 23,000' AGL
Temperatures Readings
Current 0°C / 32°F
Dewpoint -1°C / 30°F
Humidity 93%
Altimeter 30.15" Hg
Pressure 1021 hPa
Elevation 149
METAR EDDP 180250Z 17006KT 9999 BKN045 BKN230 00/M01 Q1021 NOSIG
Observed Flight Rules
Dec-18 @ 02:50 UTC
(31 minutes ago)
VFR
Wind Visibility
170° at 6 knots 10,000+ meters
Clouds
  • Broken at 4,500' AGL
  • Broken at 23,000' AGL
Temperature Dewpoint
0°C / 32°F -1°C / 30°F
Humidity Altimeter Pressure
93% 30.15" Hg 1021 hPa